Terminal Aerodrome Forecast
Issued by NWS

Home | Current Version | Previous Version | Text Only | Print | Product List | Glossary On
Versions: 1 2 3 4 5 6 7 8 9 10 11 12 13 14 15 16
544
FTUS43 KMQT 252328
TAFCMX
TAF
KCMX 252328Z 2600/2624 10011G19KT P6SM OVC007
     FM260800 11010KT 5SM -FZRA BR OVC008
     FM261400 10007KT 2SM -FZRA BR OVC003
     FM261500 10005KT P6SM OVC008=

USA.gov is the U.S. government's official web portal to all federal, state and local government web resources and services.